sensor_id;sensor_type;location;lat;lon;timestamp;temperature;humidity
4615;DHT22;2320;51.362;6.946;2022-07-24T00:00:37;15.90;99.90
4615;DHT22;2320;51.362;6.946;2022-07-24T00:03:03;15.80;99.90
4615;DHT22;2320;51.362;6.946;2022-07-24T00:05:28;15.80;99.90
4615;DHT22;2320;51.362;6.946;2022-07-24T00:07:54;15.80;99.90
4615;DHT22;2320;51.362;6.946;2022-07-24T00:10:19;15.80;99.90
4615;DHT22;2320;51.362;6.946;2022-07-24T00:12:45;15.80;99.90
4615;DHT22;2320;51.362;6.946;2022-07-24T00:15:11;15.90;99.90
4615;DHT22;2320;51.362;6.946;2022-07-24T00:17:36;15.70;99.90
4615;DHT22;2320;51.362;6.946;2022-07-24T00:20:05;15.70;99.90
4615;DHT22;2320;51.362;6.946;2022-07-24T00:22:31;15.60;99.90
4615;DHT22;2320;51.362;6.946;2022-07-24T00:24:56;15.60;99.90
4615;DHT22;2320;51.362;6.946;2022-07-24T00:27:22;15.70;99.90
4615;DHT22;2320;51.362;6.946;2022-07-24T00:29:47;15.70;99.90
4615;DHT22;2320;51.362;6.946;2022-07-24T00:32:13;15.60;99.90
4615;DHT22;2320;51.362;6.946;2022-07-24T00:34:38;15.60;99.90
4615;DHT22;2320;51.362;6.946;2022-07-24T00:37:04;15.60;99.90
4615;DHT22;2320;51.362;6.946;2022-07-24T00:39:29;15.70;99.90
4615;DHT22;2320;51.362;6.946;2022-07-24T00:41:55;15.80;99.90
4615;DHT22;2320;51.362;6.946;2022-07-24T00:44:20;15.80;99.90
4615;DHT22;2320;51.362;6.946;2022-07-24T00:46:46;15.70;99.90
4615;DHT22;2320;51.362;6.946;2022-07-24T00:49:12;15.80;99.90
4615;DHT22;2320;51.362;6.946;2022-07-24T00:51:39;15.80;99.90
4615;DHT22;2320;51.362;6.946;2022-07-24T00:54:07;15.70;99.90
4615;DHT22;2320;51.362;6.946;2022-07-24T00:56:33;15.60;99.90
4615;DHT22;2320;51.362;6.946;2022-07-24T00:59:02;15.50;99.90
4615;DHT22;2320;51.362;6.946;2022-07-24T01:01:28;15.50;99.90
4615;DHT22;2320;51.362;6.946;2022-07-24T01:03:54;15.50;99.90
4615;DHT22;2320;51.362;6.946;2022-07-24T01:06:20;15.50;99.90
4615;DHT22;2320;51.362;6.946;2022-07-24T01:08:46;15.50;99.90
4615;DHT22;2320;51.362;6.946;2022-07-24T01:11:11;15.60;99.90
4615;DHT22;2320;51.362;6.946;2022-07-24T01:13:37;15.60;99.90
4615;DHT22;2320;51.362;6.946;2022-07-24T01:16:03;15.70;99.90
4615;DHT22;2320;51.362;6.946;2022-07-24T01:18:28;15.70;99.90
4615;DHT22;2320;51.362;6.946;2022-07-24T01:20:54;15.60;99.90
4615;DHT22;2320;51.362;6.946;2022-07-24T01:23:21;15.60;99.90
4615;DHT22;2320;51.362;6.946;2022-07-24T01:25:47;15.50;99.90
4615;DHT22;2320;51.362;6.946;2022-07-24T01:28:12;15.40;99.90
4615;DHT22;2320;51.362;6.946;2022-07-24T01:30:38;15.30;99.90
4615;DHT22;2320;51.362;6.946;2022-07-24T01:33:03;15.30;99.90
4615;DHT22;2320;51.362;6.946;2022-07-24T01:35:29;15.30;99.90
4615;DHT22;2320;51.362;6.946;2022-07-24T01:37:54;15.40;99.90
4615;DHT22;2320;51.362;6.946;2022-07-24T01:40:20;15.60;99.90
4615;DHT22;2320;51.362;6.946;2022-07-24T01:42:46;15.50;99.90
4615;DHT22;2320;51.362;6.946;2022-07-24T01:45:11;15.50;99.90
4615;DHT22;2320;51.362;6.946;2022-07-24T01:47:37;15.40;99.90
4615;DHT22;2320;51.362;6.946;2022-07-24T01:50:03;15.40;99.90
4615;DHT22;2320;51.362;6.946;2022-07-24T01:52:29;15.40;99.90
4615;DHT22;2320;51.362;6.946;2022-07-24T01:54:54;15.30;99.90
4615;DHT22;2320;51.362;6.946;2022-07-24T01:57:19;15.30;99.90
4615;DHT22;2320;51.362;6.946;2022-07-24T01:59:45;15.30;99.90
4615;DHT22;2320;51.362;6.946;2022-07-24T02:02:11;15.30;99.90
4615;DHT22;2320;51.362;6.946;2022-07-24T02:04:36;15.40;99.90
4615;DHT22;2320;51.362;6.946;2022-07-24T02:07:02;15.40;99.90
4615;DHT22;2320;51.362;6.946;2022-07-24T02:09:27;15.50;99.90
4615;DHT22;2320;51.362;6.946;2022-07-24T02:11:53;15.50;99.90
4615;DHT22;2320;51.362;6.946;2022-07-24T02:14:18;15.50;99.90
4615;DHT22;2320;51.362;6.946;2022-07-24T02:16:44;15.50;99.90
4615;DHT22;2320;51.362;6.946;2022-07-24T02:19:10;15.60;99.90
4615;DHT22;2320;51.362;6.946;2022-07-24T02:21:35;15.60;99.90
4615;DHT22;2320;51.362;6.946;2022-07-24T02:24:01;15.60;99.90
4615;DHT22;2320;51.362;6.946;2022-07-24T02:26:26;15.80;99.90
4615;DHT22;2320;51.362;6.946;2022-07-24T02:28:52;16.00;99.90
4615;DHT22;2320;51.362;6.946;2022-07-24T02:31:17;16.00;99.90
4615;DHT22;2320;51.362;6.946;2022-07-24T02:33:43;16.00;99.90
4615;DHT22;2320;51.362;6.946;2022-07-24T02:36:08;16.00;99.90
4615;DHT22;2320;51.362;6.946;2022-07-24T02:38:34;16.20;99.90
4615;DHT22;2320;51.362;6.946;2022-07-24T02:40:59;16.00;99.90
4615;DHT22;2320;51.362;6.946;2022-07-24T02:43:25;15.90;99.90
4615;DHT22;2320;51.362;6.946;2022-07-24T02:45:50;16.00;99.90
4615;DHT22;2320;51.362;6.946;2022-07-24T02:48:16;16.10;99.90
4615;DHT22;2320;51.362;6.946;2022-07-24T02:50:41;16.30;99.90
4615;DHT22;2320;51.362;6.946;2022-07-24T02:53:07;16.20;99.90
4615;DHT22;2320;51.362;6.946;2022-07-24T02:55:32;16.30;99.90
4615;DHT22;2320;51.362;6.946;2022-07-24T02:57:58;16.40;99.90
4615;DHT22;2320;51.362;6.946;2022-07-24T03:00:23;16.60;99.90
4615;DHT22;2320;51.362;6.946;2022-07-24T03:02:49;16.80;99.90
4615;DHT22;2320;51.362;6.946;2022-07-24T03:05:15;16.90;99.90
4615;DHT22;2320;51.362;6.946;2022-07-24T03:07:40;17.20;99.90
4615;DHT22;2320;51.362;6.946;2022-07-24T03:10:07;17.40;99.90
4615;DHT22;2320;51.362;6.946;2022-07-24T03:12:33;17.70;99.90
4615;DHT22;2320;51.362;6.946;2022-07-24T03:14:58;17.80;99.90
4615;DHT22;2320;51.362;6.946;2022-07-24T03:17:24;17.90;99.90
4615;DHT22;2320;51.362;6.946;2022-07-24T03:19:49;18.00;99.90
4615;DHT22;2320;51.362;6.946;2022-07-24T03:22:15;18.10;99.90
4615;DHT22;2320;51.362;6.946;2022-07-24T03:24:40;18.20;99.90
4615;DHT22;2320;51.362;6.946;2022-07-24T03:27:06;18.40;99.90
4615;DHT22;2320;51.362;6.946;2022-07-24T03:29:31;18.60;99.90
4615;DHT22;2320;51.362;6.946;2022-07-24T03:31:57;18.70;99.90
4615;DHT22;2320;51.362;6.946;2022-07-24T03:34:22;18.90;99.90
4615;DHT22;2320;51.362;6.946;2022-07-24T03:36:48;19.10;99.90
4615;DHT22;2320;51.362;6.946;2022-07-24T03:39:13;19.20;99.90
4615;DHT22;2320;51.362;6.946;2022-07-24T03:41:39;19.30;99.90
4615;DHT22;2320;51.362;6.946;2022-07-24T03:44:04;19.40;99.90
4615;DHT22;2320;51.362;6.946;2022-07-24T03:46:30;19.50;99.90
4615;DHT22;2320;51.362;6.946;2022-07-24T03:48:55;19.60;99.90
4615;DHT22;2320;51.362;6.946;2022-07-24T03:51:21;19.60;99.90
4615;DHT22;2320;51.362;6.946;2022-07-24T03:53:47;19.60;99.90
4615;DHT22;2320;51.362;6.946;2022-07-24T03:56:13;19.70;99.90
4615;DHT22;2320;51.362;6.946;2022-07-24T03:58:38;19.70;99.90
4615;DHT22;2320;51.362;6.946;2022-07-24T04:01:04;19.80;99.90
4615;DHT22;2320;51.362;6.946;2022-07-24T04:03:29;19.80;99.90
4615;DHT22;2320;51.362;6.946;2022-07-24T04:05:55;19.90;99.90
4615;DHT22;2320;51.362;6.946;2022-07-24T04:08:20;19.90;99.90
4615;DHT22;2320;51.362;6.946;2022-07-24T04:10:46;19.90;99.90
4615;DHT22;2320;51.362;6.946;2022-07-24T04:13:11;19.90;99.90
4615;DHT22;2320;51.362;6.946;2022-07-24T04:15:37;19.90;99.90
4615;DHT22;2320;51.362;6.946;2022-07-24T04:18:02;19.90;99.90
4615;DHT22;2320;51.362;6.946;2022-07-24T04:20:28;19.90;99.90
4615;DHT22;2320;51.362;6.946;2022-07-24T04:22:54;20.00;99.90
4615;DHT22;2320;51.362;6.946;2022-07-24T04:25:19;20.00;99.90
4615;DHT22;2320;51.362;6.946;2022-07-24T04:27:45;20.00;99.90
4615;DHT22;2320;51.362;6.946;2022-07-24T04:30:10;20.00;99.90
4615;DHT22;2320;51.362;6.946;2022-07-24T04:32:36;20.00;99.90
4615;DHT22;2320;51.362;6.946;2022-07-24T04:35:02;20.00;99.90
4615;DHT22;2320;51.362;6.946;2022-07-24T04:37:28;20.00;99.90
4615;DHT22;2320;51.362;6.946;2022-07-24T04:39:53;19.90;99.90
4615;DHT22;2320;51.362;6.946;2022-07-24T04:42:19;20.00;99.90
4615;DHT22;2320;51.362;6.946;2022-07-24T04:44:44;20.00;99.90
4615;DHT22;2320;51.362;6.946;2022-07-24T04:47:10;20.10;99.90
4615;DHT22;2320;51.362;6.946;2022-07-24T04:49:35;20.00;99.90
4615;DHT22;2320;51.362;6.946;2022-07-24T04:52:01;20.00;99.90
4615;DHT22;2320;51.362;6.946;2022-07-24T04:54:26;20.10;99.90
4615;DHT22;2320;51.362;6.946;2022-07-24T04:56:52;20.20;99.90
4615;DHT22;2320;51.362;6.946;2022-07-24T04:59:17;20.30;99.90
4615;DHT22;2320;51.362;6.946;2022-07-24T05:01:43;20.30;99.90
4615;DHT22;2320;51.362;6.946;2022-07-24T05:04:08;20.40;99.90
4615;DHT22;2320;51.362;6.946;2022-07-24T05:06:34;20.40;99.90
4615;DHT22;2320;51.362;6.946;2022-07-24T05:08:59;20.40;99.90
4615;DHT22;2320;51.362;6.946;2022-07-24T05:11:24;20.50;99.90
4615;DHT22;2320;51.362;6.946;2022-07-24T05:13:50;20.60;99.90
4615;DHT22;2320;51.362;6.946;2022-07-24T05:16:15;21.10;99.90
4615;DHT22;2320;51.362;6.946;2022-07-24T05:18:41;21.80;99.90
4615;DHT22;2320;51.362;6.946;2022-07-24T05:21:06;22.50;99.90
4615;DHT22;2320;51.362;6.946;2022-07-24T05:23:32;22.80;99.90
4615;DHT22;2320;51.362;6.946;2022-07-24T05:25:58;23.30;99.90
4615;DHT22;2320;51.362;6.946;2022-07-24T05:28:24;23.30;99.90
4615;DHT22;2320;51.362;6.946;2022-07-24T05:30:49;23.60;99.90
4615;DHT22;2320;51.362;6.946;2022-07-24T05:33:15;23.90;99.90
4615;DHT22;2320;51.362;6.946;2022-07-24T05:35:40;24.00;99.90
4615;DHT22;2320;51.362;6.946;2022-07-24T05:38:06;24.70;99.90
4615;DHT22;2320;51.362;6.946;2022-07-24T05:40:31;24.90;99.90
4615;DHT22;2320;51.362;6.946;2022-07-24T05:42:57;25.40;99.90
4615;DHT22;2320;51.362;6.946;2022-07-24T05:45:22;24.80;99.90
4615;DHT22;2320;51.362;6.946;2022-07-24T05:47:48;24.50;99.90
4615;DHT22;2320;51.362;6.946;2022-07-24T05:50:14;24.30;99.90
4615;DHT22;2320;51.362;6.946;2022-07-24T05:52:40;24.50;99.90
4615;DHT22;2320;51.362;6.946;2022-07-24T05:55:06;24.30;99.90
4615;DHT22;2320;51.362;6.946;2022-07-24T05:57:31;25.00;99.90
4615;DHT22;2320;51.362;6.946;2022-07-24T05:59:57;25.20;99.90
4615;DHT22;2320;51.362;6.946;2022-07-24T06:02:23;25.90;99.90
4615;DHT22;2320;51.362;6.946;2022-07-24T06:04:48;27.10;99.90
4615;DHT22;2320;51.362;6.946;2022-07-24T06:07:13;28.50;99.90
4615;DHT22;2320;51.362;6.946;2022-07-24T06:09:39;30.00;99.90
4615;DHT22;2320;51.362;6.946;2022-07-24T06:12:05;31.10;99.90
4615;DHT22;2320;51.362;6.946;2022-07-24T06:14:31;31.90;99.90
4615;DHT22;2320;51.362;6.946;2022-07-24T06:16:57;31.80;99.90
4615;DHT22;2320;51.362;6.946;2022-07-24T06:19:22;32.40;99.90
4615;DHT22;2320;51.362;6.946;2022-07-24T06:21:48;32.80;99.90
4615;DHT22;2320;51.362;6.946;2022-07-24T06:24:13;33.00;99.90
4615;DHT22;2320;51.362;6.946;2022-07-24T06:26:39;33.70;99.20
4615;DHT22;2320;51.362;6.946;2022-07-24T06:29:04;33.70;97.90
4615;DHT22;2320;51.362;6.946;2022-07-24T06:31:30;34.40;96.80
4615;DHT22;2320;51.362;6.946;2022-07-24T06:33:55;35.00;94.20
4615;DHT22;2320;51.362;6.946;2022-07-24T06:36:20;34.20;93.70
4615;DHT22;2320;51.362;6.946;2022-07-24T06:38:46;35.20;91.80
4615;DHT22;2320;51.362;6.946;2022-07-24T06:41:11;35.70;90.70
4615;DHT22;2320;51.362;6.946;2022-07-24T06:43:37;35.40;88.50
4615;DHT22;2320;51.362;6.946;2022-07-24T06:46:02;35.10;90.10
4615;DHT22;2320;51.362;6.946;2022-07-24T06:48:29;35.10;88.10
4615;DHT22;2320;51.362;6.946;2022-07-24T06:50:55;35.40;85.60
4615;DHT22;2320;51.362;6.946;2022-07-24T06:53:20;35.80;84.00
4615;DHT22;2320;51.362;6.946;2022-07-24T06:55:46;35.30;84.40
4615;DHT22;2320;51.362;6.946;2022-07-24T06:58:12;35.30;82.40
4615;DHT22;2320;51.362;6.946;2022-07-24T07:00:38;34.20;83.50
4615;DHT22;2320;51.362;6.946;2022-07-24T07:03:04;34.50;84.70
4615;DHT22;2320;51.362;6.946;2022-07-24T07:05:30;35.00;82.70
4615;DHT22;2320;51.362;6.946;2022-07-24T07:07:56;35.60;80.40
4615;DHT22;2320;51.362;6.946;2022-07-24T07:10:21;36.20;80.50
4615;DHT22;2320;51.362;6.946;2022-07-24T07:12:47;36.10;79.20
4615;DHT22;2320;51.362;6.946;2022-07-24T07:15:12;36.60;78.40
4615;DHT22;2320;51.362;6.946;2022-07-24T07:17:39;37.00;76.80
4615;DHT22;2320;51.362;6.946;2022-07-24T07:20:05;35.60;74.50
4615;DHT22;2320;51.362;6.946;2022-07-24T07:22:31;34.10;75.10
4615;DHT22;2320;51.362;6.946;2022-07-24T07:24:57;35.40;77.70
4615;DHT22;2320;51.362;6.946;2022-07-24T07:27:22;35.80;77.70
4615;DHT22;2320;51.362;6.946;2022-07-24T07:29:48;37.00;74.20
4615;DHT22;2320;51.362;6.946;2022-07-24T07:32:13;37.30;72.50
4615;DHT22;2320;51.362;6.946;2022-07-24T07:34:39;37.50;72.20
4615;DHT22;2320;51.362;6.946;2022-07-24T07:37:04;36.60;70.60
4615;DHT22;2320;51.362;6.946;2022-07-24T07:39:30;37.90;72.00
4615;DHT22;2320;51.362;6.946;2022-07-24T07:41:55;36.20;68.10
4615;DHT22;2320;51.362;6.946;2022-07-24T07:44:21;34.70;71.30
4615;DHT22;2320;51.362;6.946;2022-07-24T07:46:47;34.90;73.40
4615;DHT22;2320;51.362;6.946;2022-07-24T07:49:13;35.70;73.00
4615;DHT22;2320;51.362;6.946;2022-07-24T07:51:39;36.90;75.90
4615;DHT22;2320;51.362;6.946;2022-07-24T07:54:04;37.50;71.20
4615;DHT22;2320;51.362;6.946;2022-07-24T07:56:30;38.20;69.30
4615;DHT22;2320;51.362;6.946;2022-07-24T07:58:56;38.30;65.20
4615;DHT22;2320;51.362;6.946;2022-07-24T08:01:21;35.40;70.30
4615;DHT22;2320;51.362;6.946;2022-07-24T08:03:46;36.20;70.20
4615;DHT22;2320;51.362;6.946;2022-07-24T08:06:12;37.10;69.60
4615;DHT22;2320;51.362;6.946;2022-07-24T08:08:38;37.60;68.70
4615;DHT22;2320;51.362;6.946;2022-07-24T08:11:03;37.70;67.90
4615;DHT22;2320;51.362;6.946;2022-07-24T08:13:29;37.90;66.80
4615;DHT22;2320;51.362;6.946;2022-07-24T08:15:54;38.40;65.90
4615;DHT22;2320;51.362;6.946;2022-07-24T08:18:20;38.70;65.90
4615;DHT22;2320;51.362;6.946;2022-07-24T08:20:45;38.60;63.60
4615;DHT22;2320;51.362;6.946;2022-07-24T08:23:11;38.20;64.60
4615;DHT22;2320;51.362;6.946;2022-07-24T08:25:36;37.60;66.00
4615;DHT22;2320;51.362;6.946;2022-07-24T08:28:02;37.80;64.20
4615;DHT22;2320;51.362;6.946;2022-07-24T08:30:28;38.00;64.60
4615;DHT22;2320;51.362;6.946;2022-07-24T08:32:53;38.30;63.00
4615;DHT22;2320;51.362;6.946;2022-07-24T08:35:19;38.40;63.40
4615;DHT22;2320;51.362;6.946;2022-07-24T08:37:45;39.00;63.20
4615;DHT22;2320;51.362;6.946;2022-07-24T08:40:12;39.50;62.10
4615;DHT22;2320;51.362;6.946;2022-07-24T08:42:37;39.00;60.40
4615;DHT22;2320;51.362;6.946;2022-07-24T08:45:03;38.70;61.80
4615;DHT22;2320;51.362;6.946;2022-07-24T08:47:29;38.00;63.30
4615;DHT22;2320;51.362;6.946;2022-07-24T08:49:57;38.60;63.20
4615;DHT22;2320;51.362;6.946;2022-07-24T08:52:23;38.30;62.30
4615;DHT22;2320;51.362;6.946;2022-07-24T08:54:48;38.30;63.30
4615;DHT22;2320;51.362;6.946;2022-07-24T08:57:14;38.80;63.70
4615;DHT22;2320;51.362;6.946;2022-07-24T08:59:40;39.70;62.50
4615;DHT22;2320;51.362;6.946;2022-07-24T09:02:05;40.40;59.10
4615;DHT22;2320;51.362;6.946;2022-07-24T09:07:00;40.90;58.10
4615;DHT22;2320;51.362;6.946;2022-07-24T09:09:25;39.80;58.80
4615;DHT22;2320;51.362;6.946;2022-07-24T09:12:03;39.70;58.60
4615;DHT22;2320;51.362;6.946;2022-07-24T09:14:30;38.70;58.00
4615;DHT22;2320;51.362;6.946;2022-07-24T09:17:09;39.30;60.50
4615;DHT22;2320;51.362;6.946;2022-07-24T09:19:49;39.40;59.60
4615;DHT22;2320;51.362;6.946;2022-07-24T09:25:21;40.50;57.80
4615;DHT22;2320;51.362;6.946;2022-07-24T09:27:46;40.70;57.80
4615;DHT22;2320;51.362;6.946;2022-07-24T09:30:20;40.90;56.00
4615;DHT22;2320;51.362;6.946;2022-07-24T09:32:51;40.90;56.30
4615;DHT22;2320;51.362;6.946;2022-07-24T09:35:16;41.20;57.10
4615;DHT22;2320;51.362;6.946;2022-07-24T09:37:52;41.20;56.60
4615;DHT22;2320;51.362;6.946;2022-07-24T09:40:18;40.80;55.80
4615;DHT22;2320;51.362;6.946;2022-07-24T09:42:43;40.70;57.60
4615;DHT22;2320;51.362;6.946;2022-07-24T09:45:09;40.40;56.50
4615;DHT22;2320;51.362;6.946;2022-07-24T09:47:36;40.50;55.90
4615;DHT22;2320;51.362;6.946;2022-07-24T09:50:11;39.90;56.30
4615;DHT22;2320;51.362;6.946;2022-07-24T09:52:37;40.80;56.70
4615;DHT22;2320;51.362;6.946;2022-07-24T09:55:03;40.20;56.40
4615;DHT22;2320;51.362;6.946;2022-07-24T09:57:29;40.30;55.60
4615;DHT22;2320;51.362;6.946;2022-07-24T10:00:00;41.00;55.70
4615;DHT22;2320;51.362;6.946;2022-07-24T10:02:30;39.90;56.50
4615;DHT22;2320;51.362;6.946;2022-07-24T10:04:57;40.40;56.50
4615;DHT22;2320;51.362;6.946;2022-07-24T10:07:23;40.40;57.30
4615;DHT22;2320;51.362;6.946;2022-07-24T10:09:49;41.00;56.30
4615;DHT22;2320;51.362;6.946;2022-07-24T10:12:19;41.20;55.90
4615;DHT22;2320;51.362;6.946;2022-07-24T10:14:45;41.20;56.50
4615;DHT22;2320;51.362;6.946;2022-07-24T10:17:12;41.50;56.10
4615;DHT22;2320;51.362;6.946;2022-07-24T10:19:42;41.10;55.70
4615;DHT22;2320;51.362;6.946;2022-07-24T10:22:10;41.60;55.50
4615;DHT22;2320;51.362;6.946;2022-07-24T10:24:55;40.80;54.50
4615;DHT22;2320;51.362;6.946;2022-07-24T10:27:25;41.50;56.60
4615;DHT22;2320;51.362;6.946;2022-07-24T10:29:52;41.90;53.20
4615;DHT22;2320;51.362;6.946;2022-07-24T10:32:18;41.10;54.60
4615;DHT22;2320;51.362;6.946;2022-07-24T10:34:48;40.80;53.80
4615;DHT22;2320;51.362;6.946;2022-07-24T10:37:26;40.80;54.30
4615;DHT22;2320;51.362;6.946;2022-07-24T10:42:18;40.80;56.00
4615;DHT22;2320;51.362;6.946;2022-07-24T10:44:44;40.20;55.00
4615;DHT22;2320;51.362;6.946;2022-07-24T10:47:11;40.90;55.80
4615;DHT22;2320;51.362;6.946;2022-07-24T10:49:47;41.60;54.20
4615;DHT22;2320;51.362;6.946;2022-07-24T10:52:29;41.70;53.20
4615;DHT22;2320;51.362;6.946;2022-07-24T10:57:58;40.70;53.00
4615;DHT22;2320;51.362;6.946;2022-07-24T11:00:25;40.70;54.90
4615;DHT22;2320;51.362;6.946;2022-07-24T11:02:58;41.10;54.30
4615;DHT22;2320;51.362;6.946;2022-07-24T11:10:46;41.10;53.20
4615;DHT22;2320;51.362;6.946;2022-07-24T11:21:30;41.60;53.20
4615;DHT22;2320;51.362;6.946;2022-07-24T11:26:40;39.40;53.80
4615;DHT22;2320;51.362;6.946;2022-07-24T11:29:14;39.50;54.10
4615;DHT22;2320;51.362;6.946;2022-07-24T11:31:50;39.00;54.10
4615;DHT22;2320;51.362;6.946;2022-07-24T11:34:16;38.30;55.20
4615;DHT22;2320;51.362;6.946;2022-07-24T11:36:43;37.80;56.60
4615;DHT22;2320;51.362;6.946;2022-07-24T11:39:08;37.60;55.90
4615;DHT22;2320;51.362;6.946;2022-07-24T11:44:09;37.40;57.00
4615;DHT22;2320;51.362;6.946;2022-07-24T11:46:35;37.60;57.60
4615;DHT22;2320;51.362;6.946;2022-07-24T11:49:10;37.20;57.30
4615;DHT22;2320;51.362;6.946;2022-07-24T11:51:46;37.20;57.30
4615;DHT22;2320;51.362;6.946;2022-07-24T11:54:12;37.10;56.80
4615;DHT22;2320;51.362;6.946;2022-07-24T11:56:38;37.10;57.70
4615;DHT22;2320;51.362;6.946;2022-07-24T11:59:03;37.00;56.90
4615;DHT22;2320;51.362;6.946;2022-07-24T12:01:29;36.50;57.80
4615;DHT22;2320;51.362;6.946;2022-07-24T12:03:58;35.60;57.50
4615;DHT22;2320;51.362;6.946;2022-07-24T12:06:24;34.80;59.00
4615;DHT22;2320;51.362;6.946;2022-07-24T12:08:50;34.30;60.10
4615;DHT22;2320;51.362;6.946;2022-07-24T12:11:24;33.80;58.40
4615;DHT22;2320;51.362;6.946;2022-07-24T12:13:50;33.20;60.10
4615;DHT22;2320;51.362;6.946;2022-07-24T12:16:24;32.90;62.90
4615;DHT22;2320;51.362;6.946;2022-07-24T12:18:49;32.90;64.70
4615;DHT22;2320;51.362;6.946;2022-07-24T12:21:15;33.00;65.70
4615;DHT22;2320;51.362;6.946;2022-07-24T12:23:41;32.90;64.30
4615;DHT22;2320;51.362;6.946;2022-07-24T12:26:06;32.90;62.20
4615;DHT22;2320;51.362;6.946;2022-07-24T12:28:32;32.80;64.40
4615;DHT22;2320;51.362;6.946;2022-07-24T12:30:57;32.80;65.50
4615;DHT22;2320;51.362;6.946;2022-07-24T12:33:30;32.90;66.20
4615;DHT22;2320;51.362;6.946;2022-07-24T12:35:59;32.80;63.00
4615;DHT22;2320;51.362;6.946;2022-07-24T12:38:32;32.70;63.10
4615;DHT22;2320;51.362;6.946;2022-07-24T12:43:26;32.60;62.70
4615;DHT22;2320;51.362;6.946;2022-07-24T12:46:06;32.40;61.50
4615;DHT22;2320;51.362;6.946;2022-07-24T12:48:32;32.30;63.30
4615;DHT22;2320;51.362;6.946;2022-07-24T12:53:27;32.10;60.90
4615;DHT22;2320;51.362;6.946;2022-07-24T12:56:01;32.00;62.70
4615;DHT22;2320;51.362;6.946;2022-07-24T12:58:27;31.90;61.80
4615;DHT22;2320;51.362;6.946;2022-07-24T13:00:56;32.10;62.90
4615;DHT22;2320;51.362;6.946;2022-07-24T13:03:25;31.90;64.30
4615;DHT22;2320;51.362;6.946;2022-07-24T13:05:53;32.00;60.20
4615;DHT22;2320;51.362;6.946;2022-07-24T13:08:19;31.90;62.40
4615;DHT22;2320;51.362;6.946;2022-07-24T13:10:45;31.80;63.90
4615;DHT22;2320;51.362;6.946;2022-07-24T13:13:10;31.90;64.50
4615;DHT22;2320;51.362;6.946;2022-07-24T13:15:35;32.00;60.80
4615;DHT22;2320;51.362;6.946;2022-07-24T13:18:01;32.10;60.60
4615;DHT22;2320;51.362;6.946;2022-07-24T13:20:26;32.00;62.00
4615;DHT22;2320;51.362;6.946;2022-07-24T13:22:52;32.10;62.70
4615;DHT22;2320;51.362;6.946;2022-07-24T13:25:17;32.10;60.50
4615;DHT22;2320;51.362;6.946;2022-07-24T13:27:43;32.00;59.80
4615;DHT22;2320;51.362;6.946;2022-07-24T13:30:08;32.00;62.10
4615;DHT22;2320;51.362;6.946;2022-07-24T13:32:34;32.00;62.20
4615;DHT22;2320;51.362;6.946;2022-07-24T13:35:00;32.20;62.20
4615;DHT22;2320;51.362;6.946;2022-07-24T13:37:25;32.10;60.90
4615;DHT22;2320;51.362;6.946;2022-07-24T13:39:51;32.20;61.60
4615;DHT22;2320;51.362;6.946;2022-07-24T13:42:16;32.10;63.20
4615;DHT22;2320;51.362;6.946;2022-07-24T13:44:41;32.10;63.80
4615;DHT22;2320;51.362;6.946;2022-07-24T13:47:07;32.00;62.70
4615;DHT22;2320;51.362;6.946;2022-07-24T13:49:32;31.90;63.50
4615;DHT22;2320;51.362;6.946;2022-07-24T13:51:58;31.80;60.30
4615;DHT22;2320;51.362;6.946;2022-07-24T13:54:23;31.80;63.30
4615;DHT22;2320;51.362;6.946;2022-07-24T13:56:49;31.50;61.80
4615;DHT22;2320;51.362;6.946;2022-07-24T13:59:15;31.60;61.90
4615;DHT22;2320;51.362;6.946;2022-07-24T14:01:41;31.30;62.20
4615;DHT22;2320;51.362;6.946;2022-07-24T14:04:06;31.30;63.50
4615;DHT22;2320;51.362;6.946;2022-07-24T14:06:35;31.40;63.60
4615;DHT22;2320;51.362;6.946;2022-07-24T14:09:02;31.50;64.20
4615;DHT22;2320;51.362;6.946;2022-07-24T14:11:28;31.80;64.20
4615;DHT22;2320;51.362;6.946;2022-07-24T14:13:53;31.90;64.60
4615;DHT22;2320;51.362;6.946;2022-07-24T14:16:19;31.80;62.30
4615;DHT22;2320;51.362;6.946;2022-07-24T14:18:45;31.70;64.40
4615;DHT22;2320;51.362;6.946;2022-07-24T14:21:11;31.70;63.70
4615;DHT22;2320;51.362;6.946;2022-07-24T14:23:36;31.80;63.00
4615;DHT22;2320;51.362;6.946;2022-07-24T14:26:02;31.70;63.60
4615;DHT22;2320;51.362;6.946;2022-07-24T14:28:27;31.70;64.40
4615;DHT22;2320;51.362;6.946;2022-07-24T14:30:53;31.60;64.30
4615;DHT22;2320;51.362;6.946;2022-07-24T14:33:18;31.50;65.00
4615;DHT22;2320;51.362;6.946;2022-07-24T14:35:44;31.60;67.40
4615;DHT22;2320;51.362;6.946;2022-07-24T14:38:09;31.60;65.70
4615;DHT22;2320;51.362;6.946;2022-07-24T14:40:35;31.60;66.00
4615;DHT22;2320;51.362;6.946;2022-07-24T14:43:00;31.60;65.70
4615;DHT22;2320;51.362;6.946;2022-07-24T14:45:26;31.40;65.50
4615;DHT22;2320;51.362;6.946;2022-07-24T14:47:52;31.20;65.30
4615;DHT22;2320;51.362;6.946;2022-07-24T14:50:17;31.20;67.70
4615;DHT22;2320;51.362;6.946;2022-07-24T14:52:43;31.30;67.40
4615;DHT22;2320;51.362;6.946;2022-07-24T14:55:08;31.40;67.60
4615;DHT22;2320;51.362;6.946;2022-07-24T14:57:34;31.60;68.20
4615;DHT22;2320;51.362;6.946;2022-07-24T15:00:00;31.70;66.70
4615;DHT22;2320;51.362;6.946;2022-07-24T15:02:26;31.80;66.00
4615;DHT22;2320;51.362;6.946;2022-07-24T15:04:51;31.70;66.40
4615;DHT22;2320;51.362;6.946;2022-07-24T15:07:17;31.50;66.70
4615;DHT22;2320;51.362;6.946;2022-07-24T15:09:43;31.40;67.20
4615;DHT22;2320;51.362;6.946;2022-07-24T15:12:09;31.30;68.10
4615;DHT22;2320;51.362;6.946;2022-07-24T15:14:34;31.10;68.60
4615;DHT22;2320;51.362;6.946;2022-07-24T15:16:59;31.10;69.20
4615;DHT22;2320;51.362;6.946;2022-07-24T15:19:25;31.00;70.10
4615;DHT22;2320;51.362;6.946;2022-07-24T15:21:51;31.20;69.20
4615;DHT22;2320;51.362;6.946;2022-07-24T15:24:16;31.30;69.30
4615;DHT22;2320;51.362;6.946;2022-07-24T15:26:42;31.40;69.80
4615;DHT22;2320;51.362;6.946;2022-07-24T15:29:07;31.50;69.10
4615;DHT22;2320;51.362;6.946;2022-07-24T15:31:33;31.70;70.30
4615;DHT22;2320;51.362;6.946;2022-07-24T15:33:59;31.70;68.10
4615;DHT22;2320;51.362;6.946;2022-07-24T15:36:24;31.50;68.70
4615;DHT22;2320;51.362;6.946;2022-07-24T15:38:50;31.50;68.10
4615;DHT22;2320;51.362;6.946;2022-07-24T15:41:15;31.40;68.70
4615;DHT22;2320;51.362;6.946;2022-07-24T15:43:41;31.60;68.50
4615;DHT22;2320;51.362;6.946;2022-07-24T15:46:06;31.50;68.30
4615;DHT22;2320;51.362;6.946;2022-07-24T15:48:32;31.50;70.80
4615;DHT22;2320;51.362;6.946;2022-07-24T15:50:57;31.60;69.40
4615;DHT22;2320;51.362;6.946;2022-07-24T15:53:23;31.60;69.80
4615;DHT22;2320;51.362;6.946;2022-07-24T15:55:48;31.60;69.40
4615;DHT22;2320;51.362;6.946;2022-07-24T15:58:14;31.60;69.20
4615;DHT22;2320;51.362;6.946;2022-07-24T16:00:39;31.60;67.70
4615;DHT22;2320;51.362;6.946;2022-07-24T16:03:05;31.80;67.70
4615;DHT22;2320;51.362;6.946;2022-07-24T16:05:30;31.80;67.60
4615;DHT22;2320;51.362;6.946;2022-07-24T16:07:56;31.80;70.80
4615;DHT22;2320;51.362;6.946;2022-07-24T16:10:22;31.70;67.30
4615;DHT22;2320;51.362;6.946;2022-07-24T16:12:48;31.60;68.00
4615;DHT22;2320;51.362;6.946;2022-07-24T16:15:14;31.70;69.70
4615;DHT22;2320;51.362;6.946;2022-07-24T16:17:40;31.70;70.00
4615;DHT22;2320;51.362;6.946;2022-07-24T16:20:06;31.90;69.60
4615;DHT22;2320;51.362;6.946;2022-07-24T16:22:32;31.90;71.00
4615;DHT22;2320;51.362;6.946;2022-07-24T16:24:58;32.00;68.60
4615;DHT22;2320;51.362;6.946;2022-07-24T16:27:25;31.80;68.10
4615;DHT22;2320;51.362;6.946;2022-07-24T16:29:51;31.90;67.40